Terminal Aerodrome Forecast
Issued by NWS Boston, MA

Home | Current Version | Previous Version | Text Only | Print | Product List | Glossary On
Versions: 1 2 3 4 5 6 7 8 9 10 11 12 13 14 15 16 17 18 19 20 21 22 23 24 25 26 27 28 29 30 31 32 33 34 35 36 37 38 39 40 41 42
969
FTUS41 KBOX 301125
TAFBDL
TAF
KBDL 301125Z 3012/3118 VRB03KT 3SM SHRA BR OVC005
     FM301600 VRB03KT P6SM VCSH BKN010
     FM301900 19006KT P6SM VCSH BKN015
     FM302100 19011KT P6SM VCTS BKN035CB
     FM310000 21009KT P6SM VCSH BKN035
     FM310300 18009KT P6SM VCSH BKN010
     FM310800 VRB03KT 4SM BR BKN010
     FM311100 22004KT P6SM SCT100=

USA.gov is the U.S. government's official web portal to all federal, state and local government web resources and services.